LH122 EDDM-EDDF
Flight info
| Callsign | LH122 |
|---|---|
| Flight time | 1h 2m |
| Altitude | 24000 |
| Route | GIVMI6S GIVMI Y101 ERNAS T161 DEBHI DEBHI1B |
| Aircraft | A20N/M-SDE2E3FGHIRWXY/LB1 |
Departure
| Time | 2026-05-07 15:19 |
|---|---|
| Airport | Munich Airport (EDDM) |
Arrival
| Time | 2026-05-07 16:22 |
|---|---|
| Airport | Frankfurt Main Airport (EDDF) |
| Time | Latitude | Longitude | Altitude | Speed | Heading |
|---|---|---|---|---|---|
| 2026-05-07 15:01 | 48.35056 | 11.79358 | 1479 ft | 0 kts | 263° |
| 2026-05-07 15:08 | 48.35060 | 11.79407 | 1467 ft | 7 kts | 263° |
| 2026-05-07 15:09 | 48.35053 | 11.79504 | 1470 ft | 10 kts | 310° |
| 2026-05-07 15:09 | 48.35019 | 11.79535 | 1469 ft | 0 kts | 347° |
| 2026-05-07 15:10 | 48.35021 | 11.79535 | 1470 ft | 2 kts | 347° |
| 2026-05-07 15:11 | 48.35087 | 11.79518 | 1475 ft | 15 kts | 353° |
| 2026-05-07 15:11 | 48.35216 | 11.79494 | 1477 ft | 22 kts | 353° |
| 2026-05-07 15:11 | 48.35388 | 11.79465 | 1475 ft | 27 kts | 353° |
| 2026-05-07 15:11 | 48.35511 | 11.79442 | 1463 ft | 0 kts | 352° |
| 2026-05-07 15:12 | 48.35534 | 11.79438 | 1469 ft | 12 kts | 354° |
| 2026-05-07 15:12 | 48.35642 | 11.79420 | 1469 ft | 18 kts | 348° |
| 2026-05-07 15:12 | 48.35774 | 11.79395 | 1461 ft | 20 kts | 354° |
| 2026-05-07 15:13 | 48.35887 | 11.79412 | 1461 ft | 12 kts | 52° |
| 2026-05-07 15:13 | 48.35930 | 11.79490 | 1466 ft | 0 kts | 27° |
| 2026-05-07 15:15 | 48.35953 | 11.79497 | 1468 ft | 16 kts | 8° |
| 2026-05-07 15:16 | 48.36088 | 11.79484 | 1465 ft | 22 kts | 354° |
| 2026-05-07 15:16 | 48.36208 | 11.79513 | 1459 ft | 13 kts | 63° |
| 2026-05-07 15:16 | 48.36228 | 11.79640 | 1463 ft | 14 kts | 82° |
| 2026-05-07 15:16 | 48.36241 | 11.79816 | 1466 ft | 22 kts | 84° |
| 2026-05-07 15:17 | 48.36266 | 11.80133 | 1457 ft | 35 kts | 83° |
| 2026-05-07 15:17 | 48.36295 | 11.80501 | 1460 ft | 36 kts | 83° |
| 2026-05-07 15:17 | 48.36322 | 11.80863 | 1463 ft | 34 kts | 84° |
| 2026-05-07 15:17 | 48.36347 | 11.81201 | 1461 ft | 33 kts | 84° |
| 2026-05-07 15:18 | 48.36373 | 11.81545 | 1460 ft | 33 kts | 83° |
| 2026-05-07 15:18 | 48.36397 | 11.81873 | 1459 ft | 23 kts | 92° |
| 2026-05-07 15:18 | 48.36450 | 11.82005 | 1458 ft | 8 kts | 0° |
| 2026-05-07 15:18 | 48.36527 | 11.81986 | 1458 ft | 21 kts | 353° |
| 2026-05-07 15:19 | 48.36667 | 11.81865 | 1459 ft | 18 kts | 270° |
| 2026-05-07 15:19 | 48.36619 | 11.81189 | 1461 ft | 110 kts | 263° |
| 2026-05-07 15:19 | 48.36506 | 11.79693 | 1508 ft | 174 kts | 265° |
| 2026-05-07 15:19 | 48.36377 | 11.77909 | 2528 ft | 164 kts | 268° |
| 2026-05-07 15:20 | 48.36299 | 11.76256 | 3509 ft | 153 kts | 269° |
| 2026-05-07 15:20 | 48.36239 | 11.74710 | 4401 ft | 145 kts | 266° |
| 2026-05-07 15:20 | 48.35969 | 11.73201 | 5054 ft | 151 kts | 260° |
| 2026-05-07 15:20 | 48.35816 | 11.71618 | 5717 ft | 155 kts | 265° |
| 2026-05-07 15:21 | 48.35720 | 11.69960 | 6332 ft | 163 kts | 266° |
| 2026-05-07 15:21 | 48.35787 | 11.68275 | 7038 ft | 161 kts | 282° |
| 2026-05-07 15:21 | 48.36186 | 11.66731 | 7774 ft | 158 kts | 298° |
| 2026-05-07 15:21 | 48.36782 | 11.65364 | 8526 ft | 154 kts | 300° |
| 2026-05-07 15:22 | 48.37341 | 11.64032 | 9293 ft | 147 kts | 298° |
| 2026-05-07 15:22 | 48.37878 | 11.62713 | 9905 ft | 151 kts | 297° |
| 2026-05-07 15:22 | 48.38433 | 11.61328 | 10309 ft | 164 kts | 298° |
| 2026-05-07 15:22 | 48.39050 | 11.59793 | 10706 ft | 178 kts | 298° |
| 2026-05-07 15:23 | 48.39715 | 11.58148 | 11097 ft | 190 kts | 298° |
| 2026-05-07 15:23 | 48.40425 | 11.56402 | 11490 ft | 201 kts | 298° |
| 2026-05-07 15:23 | 48.41172 | 11.54567 | 11880 ft | 210 kts | 298° |
| 2026-05-07 15:23 | 48.41949 | 11.52655 | 12278 ft | 217 kts | 298° |
| 2026-05-07 15:24 | 48.42748 | 11.50690 | 12681 ft | 223 kts | 298° |
| 2026-05-07 15:24 | 48.43568 | 11.48669 | 13076 ft | 228 kts | 298° |
| 2026-05-07 15:24 | 48.44419 | 11.46568 | 13492 ft | 243 kts | 298° |
| 2026-05-07 15:24 | 48.45434 | 11.44441 | 13860 ft | 266 kts | 313° |
| 2026-05-07 15:25 | 48.47016 | 11.42910 | 14404 ft | 277 kts | 336° |
| 2026-05-07 15:25 | 48.48922 | 11.42263 | 14998 ft | 283 kts | 346° |
| 2026-05-07 15:25 | 48.50870 | 11.41754 | 15620 ft | 285 kts | 346° |
| 2026-05-07 15:25 | 48.52817 | 11.41240 | 16200 ft | 287 kts | 346° |
| 2026-05-07 15:26 | 48.54788 | 11.40710 | 16779 ft | 288 kts | 346° |
| 2026-05-07 15:26 | 48.56770 | 11.40170 | 17349 ft | 290 kts | 346° |
| 2026-05-07 15:26 | 48.58760 | 11.39620 | 17921 ft | 292 kts | 344° |
| 2026-05-07 15:26 | 48.60607 | 11.38462 | 18420 ft | 287 kts | 321° |
| 2026-05-07 15:27 | 48.62188 | 11.36620 | 18879 ft | 287 kts | 319° |
| 2026-05-07 15:27 | 48.63752 | 11.34731 | 19329 ft | 289 kts | 319° |
| 2026-05-07 15:27 | 48.65330 | 11.32821 | 19759 ft | 291 kts | 319° |
| 2026-05-07 15:27 | 48.66916 | 11.30908 | 20181 ft | 293 kts | 319° |
| 2026-05-07 15:28 | 48.68516 | 11.28985 | 20593 ft | 294 kts | 319° |
| 2026-05-07 15:28 | 48.70125 | 11.27055 | 20993 ft | 296 kts | 319° |
| 2026-05-07 15:28 | 48.71740 | 11.25118 | 21396 ft | 297 kts | 319° |
| 2026-05-07 15:28 | 48.73371 | 11.23160 | 21529 ft | 300 kts | 319° |
| 2026-05-07 15:29 | 48.75004 | 11.21200 | 21676 ft | 299 kts | 319° |
| 2026-05-07 15:29 | 48.76631 | 11.19245 | 21766 ft | 299 kts | 319° |
| 2026-05-07 15:29 | 48.78260 | 11.17285 | 21853 ft | 299 kts | 319° |
| 2026-05-07 15:29 | 48.80049 | 11.15677 | 21898 ft | 305 kts | 339° |
| 2026-05-07 15:30 | 48.82170 | 11.15274 | 21899 ft | 313 kts | 2° |
| 2026-05-07 15:30 | 48.84276 | 11.16226 | 21896 ft | 323 kts | 26° |
| 2026-05-07 15:30 | 48.85994 | 11.18384 | 21948 ft | 331 kts | 49° |
| 2026-05-07 15:30 | 48.87143 | 11.21489 | 22036 ft | 336 kts | 64° |
| 2026-05-07 15:31 | 48.88090 | 11.24759 | 22087 ft | 346 kts | 64° |
| 2026-05-07 15:31 | 48.89105 | 11.28242 | 21858 ft | 377 kts | 62° |
| 2026-05-07 15:31 | 48.90611 | 11.31602 | 21386 ft | 403 kts | 44° |
| 2026-05-07 15:31 | 48.92813 | 11.34276 | 21072 ft | 393 kts | 26° |
| 2026-05-07 15:32 | 48.95280 | 11.35722 | 21005 ft | 369 kts | 7° |
| 2026-05-07 15:32 | 48.97761 | 11.35852 | 21009 ft | 353 kts | 348° |
| 2026-05-07 15:32 | 49.00080 | 11.34674 | 21010 ft | 353 kts | 328° |
| 2026-05-07 15:32 | 49.01973 | 11.32360 | 21012 ft | 348 kts | 308° |
| 2026-05-07 15:33 | 49.03194 | 11.29221 | 21014 ft | 345 kts | 290° |
| 2026-05-07 15:33 | 49.03937 | 11.25742 | 21014 ft | 345 kts | 287° |
| 2026-05-07 15:33 | 49.04757 | 11.22297 | 21014 ft | 346 kts | 292° |
| 2026-05-07 15:33 | 49.05769 | 11.19036 | 21016 ft | 346 kts | 297° |
| 2026-05-07 15:34 | 49.06957 | 11.15841 | 21020 ft | 346 kts | 300° |
| 2026-05-07 15:34 | 49.08248 | 11.12680 | 21019 ft | 347 kts | 301° |
| 2026-05-07 15:34 | 49.09542 | 11.09629 | 21024 ft | 347 kts | 302° |
| 2026-05-07 15:34 | 49.10862 | 11.06550 | 21028 ft | 347 kts | 302° |
| 2026-05-07 15:35 | 49.12180 | 11.03471 | 21029 ft | 347 kts | 302° |
| 2026-05-07 15:35 | 49.13495 | 11.00387 | 21032 ft | 347 kts | 302° |
| 2026-05-07 15:35 | 49.14807 | 10.97299 | 21029 ft | 347 kts | 302° |
| 2026-05-07 15:35 | 49.16121 | 10.94198 | 21033 ft | 347 kts | 302° |
| 2026-05-07 15:36 | 49.17432 | 10.91099 | 21034 ft | 347 kts | 302° |
| 2026-05-07 15:36 | 49.18742 | 10.87998 | 21034 ft | 347 kts | 302° |
| 2026-05-07 15:36 | 49.20060 | 10.84874 | 21083 ft | 355 kts | 302° |
| 2026-05-07 15:36 | 49.21428 | 10.81625 | 21331 ft | 370 kts | 302° |
| 2026-05-07 15:37 | 49.22836 | 10.78278 | 21723 ft | 377 kts | 302° |
| 2026-05-07 15:37 | 49.24259 | 10.74894 | 22115 ft | 380 kts | 302° |
| 2026-05-07 15:37 | 49.25696 | 10.71471 | 22524 ft | 382 kts | 302° |
| 2026-05-07 15:37 | 49.27135 | 10.68041 | 22934 ft | 385 kts | 302° |
| 2026-05-07 15:38 | 49.28587 | 10.64576 | 23346 ft | 388 kts | 302° |
| 2026-05-07 15:38 | 49.30047 | 10.61083 | 23748 ft | 391 kts | 302° |
| 2026-05-07 15:38 | 49.31518 | 10.57561 | 23972 ft | 393 kts | 302° |
| 2026-05-07 15:38 | 49.32988 | 10.54036 | 24039 ft | 393 kts | 302° |
| 2026-05-07 15:39 | 49.34462 | 10.50499 | 24032 ft | 393 kts | 302° |
| 2026-05-07 15:39 | 49.35938 | 10.46974 | 24026 ft | 393 kts | 303° |
| 2026-05-07 15:39 | 49.37476 | 10.43499 | 24018 ft | 394 kts | 304° |
| 2026-05-07 15:39 | 49.39050 | 10.40054 | 24017 ft | 394 kts | 304° |
| 2026-05-07 15:40 | 49.40623 | 10.36639 | 23997 ft | 387 kts | 304° |
| 2026-05-07 15:40 | 49.42159 | 10.33298 | 23780 ft | 380 kts | 304° |
| 2026-05-07 15:40 | 49.43675 | 10.29985 | 23292 ft | 379 kts | 304° |
| 2026-05-07 15:40 | 49.45180 | 10.26685 | 22734 ft | 375 kts | 304° |
| 2026-05-07 15:41 | 49.46667 | 10.23419 | 22194 ft | 371 kts | 304° |
| 2026-05-07 15:41 | 49.48135 | 10.20186 | 21664 ft | 367 kts | 304° |
| 2026-05-07 15:41 | 49.49597 | 10.16962 | 21142 ft | 367 kts | 304° |
| 2026-05-07 15:41 | 49.51048 | 10.13758 | 20617 ft | 364 kts | 304° |
| 2026-05-07 15:42 | 49.52463 | 10.10630 | 20274 ft | 356 kts | 304° |
| 2026-05-07 15:42 | 49.53882 | 10.07490 | 20018 ft | 359 kts | 304° |
| 2026-05-07 15:42 | 49.55312 | 10.04319 | 19767 ft | 361 kts | 304° |
| 2026-05-07 15:42 | 49.56736 | 10.01158 | 19524 ft | 358 kts | 304° |
| 2026-05-07 15:43 | 49.58151 | 9.98014 | 19280 ft | 357 kts | 304° |
| 2026-05-07 15:43 | 49.59564 | 9.94871 | 19037 ft | 356 kts | 304° |
| 2026-05-07 15:43 | 49.60969 | 9.91741 | 18806 ft | 355 kts | 304° |
| 2026-05-07 15:43 | 49.62370 | 9.88618 | 18534 ft | 354 kts | 304° |
| 2026-05-07 15:44 | 49.63772 | 9.85487 | 17979 ft | 355 kts | 304° |
| 2026-05-07 15:44 | 49.65176 | 9.82348 | 17302 ft | 355 kts | 304° |
| 2026-05-07 15:44 | 49.66574 | 9.79219 | 16651 ft | 354 kts | 304° |
| 2026-05-07 15:44 | 49.67971 | 9.76091 | 16007 ft | 353 kts | 304° |
| 2026-05-07 15:45 | 49.69362 | 9.72971 | 15379 ft | 352 kts | 304° |
| 2026-05-07 15:45 | 49.70750 | 9.69854 | 14765 ft | 352 kts | 304° |
| 2026-05-07 15:45 | 49.72135 | 9.66739 | 14144 ft | 351 kts | 304° |
| 2026-05-07 15:45 | 49.73513 | 9.63637 | 13543 ft | 350 kts | 304° |
| 2026-05-07 15:46 | 49.76265 | 9.57434 | 12205 ft | 349 kts | 304° |
| 2026-05-07 15:46 | 49.77635 | 9.54338 | 11574 ft | 348 kts | 304° |
| 2026-05-07 15:46 | 49.78959 | 9.51343 | 11356 ft | 326 kts | 304° |
| 2026-05-07 15:47 | 49.80196 | 9.48542 | 11209 ft | 305 kts | 304° |
| 2026-05-07 15:47 | 49.81397 | 9.45818 | 11090 ft | 308 kts | 304° |
| 2026-05-07 15:47 | 49.82603 | 9.43081 | 11035 ft | 307 kts | 304° |
| 2026-05-07 15:47 | 49.83807 | 9.40347 | 10964 ft | 306 kts | 304° |
| 2026-05-07 15:48 | 49.84990 | 9.37627 | 10641 ft | 305 kts | 303° |
| 2026-05-07 15:48 | 49.86171 | 9.34901 | 10297 ft | 303 kts | 303° |
| 2026-05-07 15:48 | 49.87344 | 9.32194 | 9864 ft | 302 kts | 303° |
| 2026-05-07 15:48 | 49.88512 | 9.29496 | 9423 ft | 299 kts | 303° |
| 2026-05-07 15:49 | 49.89666 | 9.26826 | 8968 ft | 297 kts | 303° |
| 2026-05-07 15:49 | 49.90892 | 9.24264 | 8479 ft | 295 kts | 315° |
| 2026-05-07 15:49 | 49.92610 | 9.22588 | 8032 ft | 294 kts | 339° |
| 2026-05-07 15:49 | 49.94540 | 9.21698 | 7606 ft | 292 kts | 343° |
| 2026-05-07 15:50 | 49.96495 | 9.20880 | 7189 ft | 290 kts | 343° |
| 2026-05-07 15:50 | 49.98438 | 9.20070 | 6762 ft | 288 kts | 343° |
| 2026-05-07 15:50 | 50.00253 | 9.18821 | 6298 ft | 285 kts | 325° |
| 2026-05-07 15:50 | 50.01867 | 9.17051 | 5916 ft | 281 kts | 323° |
| 2026-05-07 15:51 | 50.03411 | 9.15339 | 5755 ft | 264 kts | 323° |
| 2026-05-07 15:51 | 50.04857 | 9.13734 | 5596 ft | 246 kts | 323° |
| 2026-05-07 15:51 | 50.06204 | 9.12236 | 5449 ft | 229 kts | 323° |
| 2026-05-07 15:51 | 50.07460 | 9.10841 | 5257 ft | 217 kts | 323° |
| 2026-05-07 15:52 | 50.08686 | 9.09479 | 4893 ft | 217 kts | 323° |
| 2026-05-07 15:52 | 50.09904 | 9.08119 | 4589 ft | 215 kts | 323° |
| 2026-05-07 15:52 | 50.11121 | 9.06749 | 4206 ft | 216 kts | 323° |
| 2026-05-07 15:52 | 50.12312 | 9.05401 | 4042 ft | 206 kts | 323° |
| 2026-05-07 15:53 | 50.13445 | 9.04114 | 4007 ft | 204 kts | 323° |
| 2026-05-07 15:53 | 50.14580 | 9.02765 | 3992 ft | 204 kts | 314° |
| 2026-05-07 15:53 | 50.15193 | 9.00825 | 4021 ft | 204 kts | 273° |
| 2026-05-07 15:53 | 50.14774 | 8.98715 | 4283 ft | 210 kts | 238° |
| 2026-05-07 15:54 | 50.13912 | 8.96864 | 4462 ft | 212 kts | 234° |
| 2026-05-07 15:54 | 50.13032 | 8.95023 | 4352 ft | 209 kts | 237° |
| 2026-05-07 15:54 | 50.12293 | 8.93086 | 4080 ft | 206 kts | 246° |
| 2026-05-07 15:54 | 50.11735 | 8.91104 | 4014 ft | 194 kts | 250° |
| 2026-05-07 15:55 | 50.11254 | 8.89118 | 3998 ft | 196 kts | 251° |
| 2026-05-07 15:55 | 50.10788 | 8.87154 | 3994 ft | 188 kts | 251° |
| 2026-05-07 15:55 | 50.10340 | 8.85267 | 3969 ft | 184 kts | 251° |
| 2026-05-07 15:55 | 50.09891 | 8.83371 | 3735 ft | 202 kts | 251° |
| 2026-05-07 15:56 | 50.09357 | 8.81126 | 3452 ft | 229 kts | 251° |
| 2026-05-07 15:56 | 50.08798 | 8.78777 | 3141 ft | 233 kts | 251° |
| 2026-05-07 15:56 | 50.08233 | 8.76407 | 2819 ft | 234 kts | 251° |
| 2026-05-07 15:56 | 50.07669 | 8.74034 | 2497 ft | 232 kts | 251° |
| 2026-05-07 15:57 | 50.07112 | 8.71695 | 2181 ft | 229 kts | 251° |
| 2026-05-07 15:57 | 50.06564 | 8.69393 | 1873 ft | 225 kts | 251° |
| 2026-05-07 15:57 | 50.06223 | 8.67959 | 1677 ft | 222 kts | 251° |
| 2026-05-07 15:57 | 50.05725 | 8.65872 | 1381 ft | 206 kts | 251° |
| 2026-05-07 15:58 | 50.05256 | 8.63900 | 1123 ft | 182 kts | 250° |
| 2026-05-07 15:58 | 50.04838 | 8.62147 | 883 ft | 164 kts | 250° |
| 2026-05-07 15:58 | 50.04461 | 8.60563 | 664 ft | 149 kts | 250° |
| 2026-05-07 15:58 | 50.04117 | 8.59118 | 469 ft | 137 kts | 249° |
| 2026-05-07 15:59 | 50.03802 | 8.57796 | 384 ft | 120 kts | 250° |
| 2026-05-07 15:59 | 50.03502 | 8.56527 | 415 ft | 149 kts | 249° |
| 2026-05-07 15:59 | 50.03107 | 8.54842 | 799 ft | 178 kts | 250° |
| 2026-05-07 15:59 | 50.02649 | 8.52870 | 1271 ft | 207 kts | 251° |
| 2026-05-07 16:00 | 50.02119 | 8.50672 | 1849 ft | 228 kts | 250° |
| 2026-05-07 16:00 | 50.01481 | 8.48385 | 2476 ft | 238 kts | 246° |
| 2026-05-07 16:00 | 50.00733 | 8.46052 | 3137 ft | 245 kts | 243° |
| 2026-05-07 16:00 | 49.99900 | 8.43765 | 3809 ft | 237 kts | 240° |
| 2026-05-07 16:01 | 49.99004 | 8.41594 | 4456 ft | 241 kts | 237° |
| 2026-05-07 16:01 | 49.98286 | 8.39303 | 4893 ft | 235 kts | 260° |
| 2026-05-07 16:01 | 49.98376 | 8.36795 | 4993 ft | 234 kts | 290° |
| 2026-05-07 16:01 | 49.99292 | 8.34745 | 4996 ft | 235 kts | 322° |
| 2026-05-07 16:02 | 50.00256 | 8.33931 | 4996 ft | 235 kts | 343° |
| 2026-05-07 16:02 | 50.01875 | 8.33556 | 4997 ft | 236 kts | 353° |
| 2026-05-07 16:02 | 50.03487 | 8.33316 | 4998 ft | 235 kts | 353° |
| 2026-05-07 16:02 | 50.05147 | 8.33071 | 4992 ft | 237 kts | 353° |
| 2026-05-07 16:03 | 50.06758 | 8.32835 | 4997 ft | 235 kts | 353° |
| 2026-05-07 16:03 | 50.08391 | 8.32594 | 4996 ft | 236 kts | 353° |
| 2026-05-07 16:03 | 50.10025 | 8.32354 | 4999 ft | 236 kts | 353° |
| 2026-05-07 16:03 | 50.11656 | 8.32113 | 4998 ft | 235 kts | 353° |
| 2026-05-07 16:04 | 50.13283 | 8.31873 | 4995 ft | 234 kts | 353° |
| 2026-05-07 16:04 | 50.14910 | 8.31635 | 4994 ft | 235 kts | 353° |
| 2026-05-07 16:04 | 50.16537 | 8.31396 | 5003 ft | 235 kts | 353° |
| 2026-05-07 16:04 | 50.18168 | 8.31159 | 4992 ft | 234 kts | 353° |
| 2026-05-07 16:05 | 50.19794 | 8.30917 | 4986 ft | 234 kts | 353° |
| 2026-05-07 16:05 | 50.21417 | 8.30679 | 4999 ft | 235 kts | 354° |
| 2026-05-07 16:05 | 50.23024 | 8.31016 | 4999 ft | 238 kts | 22° |
| 2026-05-07 16:05 | 50.24319 | 8.32617 | 5002 ft | 242 kts | 53° |
| 2026-05-07 16:06 | 50.24923 | 8.35063 | 5004 ft | 246 kts | 81° |
| 2026-05-07 16:06 | 50.25099 | 8.37726 | 4994 ft | 246 kts | 83° |
| 2026-05-07 16:06 | 50.25257 | 8.40386 | 4998 ft | 246 kts | 83° |
| 2026-05-07 16:06 | 50.25413 | 8.43042 | 4999 ft | 247 kts | 83° |
| 2026-05-07 16:07 | 50.25568 | 8.45719 | 4995 ft | 247 kts | 83° |
| 2026-05-07 16:07 | 50.25723 | 8.48379 | 4994 ft | 245 kts | 83° |
| 2026-05-07 16:07 | 50.25875 | 8.51043 | 4998 ft | 246 kts | 83° |
| 2026-05-07 16:07 | 50.26028 | 8.53713 | 4996 ft | 248 kts | 83° |
| 2026-05-07 16:08 | 50.26182 | 8.56388 | 4992 ft | 244 kts | 83° |
| 2026-05-07 16:08 | 50.26335 | 8.58990 | 4993 ft | 241 kts | 83° |
| 2026-05-07 16:08 | 50.26488 | 8.61603 | 4989 ft | 242 kts | 83° |
| 2026-05-07 16:08 | 50.26641 | 8.64226 | 4992 ft | 242 kts | 83° |
| 2026-05-07 16:09 | 50.26791 | 8.66844 | 4993 ft | 242 kts | 83° |
| 2026-05-07 16:09 | 50.26943 | 8.69465 | 4987 ft | 242 kts | 83° |
| 2026-05-07 16:09 | 50.27092 | 8.72092 | 4990 ft | 243 kts | 83° |
| 2026-05-07 16:09 | 50.27241 | 8.74710 | 4991 ft | 242 kts | 83° |
| 2026-05-07 16:10 | 50.27388 | 8.77335 | 4985 ft | 242 kts | 83° |
| 2026-05-07 16:10 | 50.27538 | 8.79955 | 4986 ft | 242 kts | 83° |
| 2026-05-07 16:10 | 50.27687 | 8.82572 | 4982 ft | 242 kts | 83° |
| 2026-05-07 16:10 | 50.27836 | 8.85192 | 4980 ft | 242 kts | 83° |
| 2026-05-07 16:11 | 50.27985 | 8.87809 | 4979 ft | 242 kts | 83° |
| 2026-05-07 16:11 | 50.28135 | 8.90426 | 4975 ft | 242 kts | 83° |
| 2026-05-07 16:11 | 50.28287 | 8.93041 | 4974 ft | 242 kts | 83° |
| 2026-05-07 16:11 | 50.28438 | 8.95661 | 4970 ft | 242 kts | 83° |
| 2026-05-07 16:12 | 50.28589 | 8.98289 | 4970 ft | 243 kts | 83° |
| 2026-05-07 16:12 | 50.28706 | 9.00916 | 4963 ft | 243 kts | 92° |
| 2026-05-07 16:12 | 50.28206 | 9.03409 | 4968 ft | 244 kts | 124° |
| 2026-05-07 16:12 | 50.26967 | 9.05171 | 4973 ft | 242 kts | 155° |
| 2026-05-07 16:13 | 50.25353 | 9.05824 | 4960 ft | 241 kts | 173° |
| 2026-05-07 16:13 | 50.23701 | 9.06202 | 4963 ft | 240 kts | 174° |
| 2026-05-07 16:13 | 50.22050 | 9.06578 | 4962 ft | 240 kts | 174° |
| 2026-05-07 16:13 | 50.20398 | 9.06956 | 4961 ft | 239 kts | 174° |
| 2026-05-07 16:14 | 50.18775 | 9.07325 | 4951 ft | 228 kts | 174° |
| 2026-05-07 16:14 | 50.17277 | 9.07197 | 4951 ft | 212 kts | 204° |
| 2026-05-07 16:14 | 50.16051 | 9.05932 | 4823 ft | 213 kts | 223° |
| 2026-05-07 16:14 | 50.14930 | 9.04397 | 4455 ft | 218 kts | 224° |
| 2026-05-07 16:15 | 50.13771 | 9.02798 | 4063 ft | 223 kts | 224° |
| 2026-05-07 16:15 | 50.12660 | 9.01234 | 3950 ft | 205 kts | 231° |
| 2026-05-07 16:15 | 50.12032 | 8.99419 | 3955 ft | 180 kts | 252° |
| 2026-05-07 16:15 | 50.11668 | 8.97605 | 3985 ft | 179 kts | 255° |
| 2026-05-07 16:16 | 50.11282 | 8.95814 | 3967 ft | 174 kts | 253° |
| 2026-05-07 16:16 | 50.10891 | 8.94013 | 3963 ft | 176 kts | 254° |
| 2026-05-07 16:16 | 50.10531 | 8.92185 | 3852 ft | 179 kts | 257° |
| 2026-05-07 16:16 | 50.10236 | 8.90317 | 3702 ft | 172 kts | 259° |
| 2026-05-07 16:17 | 50.09964 | 8.88540 | 3781 ft | 174 kts | 259° |
| 2026-05-07 16:17 | 50.09743 | 8.86696 | 3773 ft | 170 kts | 264° |
| 2026-05-07 16:17 | 50.09626 | 8.84859 | 3746 ft | 173 kts | 265° |
| 2026-05-07 16:17 | 50.09403 | 8.83022 | 3646 ft | 173 kts | 257° |
| 2026-05-07 16:18 | 50.09060 | 8.81213 | 3479 ft | 174 kts | 255° |
| 2026-05-07 16:18 | 50.08679 | 8.79426 | 3267 ft | 174 kts | 253° |
| 2026-05-07 16:18 | 50.08274 | 8.77645 | 3036 ft | 175 kts | 252° |
| 2026-05-07 16:18 | 50.07839 | 8.75853 | 2793 ft | 182 kts | 251° |
| 2026-05-07 16:19 | 50.07416 | 8.74071 | 2515 ft | 167 kts | 255° |
| 2026-05-07 16:19 | 50.07108 | 8.72426 | 2252 ft | 148 kts | 258° |
| 2026-05-07 16:19 | 50.06870 | 8.70974 | 2073 ft | 131 kts | 257° |
| 2026-05-07 16:19 | 50.06560 | 8.69637 | 1875 ft | 132 kts | 252° |
| 2026-05-07 16:20 | 50.06254 | 8.68306 | 1730 ft | 130 kts | 255° |
| 2026-05-07 16:20 | 50.05967 | 8.66961 | 1612 ft | 131 kts | 253° |
| 2026-05-07 16:20 | 50.05663 | 8.65622 | 1374 ft | 128 kts | 253° |
| 2026-05-07 16:20 | 50.05380 | 8.64329 | 1204 ft | 127 kts | 253° |
| 2026-05-07 16:21 | 50.05073 | 8.63071 | 1045 ft | 123 kts | 251° |
| 2026-05-07 16:21 | 50.04758 | 8.61820 | 840 ft | 124 kts | 250° |
| 2026-05-07 16:21 | 50.04466 | 8.60577 | 646 ft | 123 kts | 251° |
| 2026-05-07 16:21 | 50.04171 | 8.59347 | 478 ft | 120 kts | 249° |
| 2026-05-07 16:22 | 50.03871 | 8.58118 | 368 ft | 119 kts | 249° |
| 2026-05-07 16:22 | 50.03730 | 8.57488 | 364 ft | 26 kts | 252° |
| 2026-05-07 16:22 | 50.03684 | 8.57226 | 362 ft | 27 kts | 279° |
| 2026-05-07 16:22 | 50.03760 | 8.56989 | 359 ft | 16 kts | 301° |
| 2026-05-07 16:23 | 50.03767 | 8.56971 | 361 ft | 0 kts | 301° |
| 2026-05-07 16:26 | 50.03768 | 8.56967 | 360 ft | 3 kts | 300° |
| 2026-05-07 16:26 | 50.03835 | 8.56884 | 362 ft | 10 kts | 7° |
| 2026-05-07 16:26 | 50.03852 | 8.56917 | 365 ft | 6 kts | 75° |
| 2026-05-07 16:26 | 50.03868 | 8.57015 | 366 ft | 17 kts | 76° |
| 2026-05-07 16:27 | 50.03926 | 8.57285 | 366 ft | 22 kts | 70° |
| 2026-05-07 16:27 | 50.03981 | 8.57512 | 366 ft | 24 kts | 70° |
| 2026-05-07 16:27 | 50.04043 | 8.57774 | 366 ft | 27 kts | 70° |
| 2026-05-07 16:27 | 50.04111 | 8.58057 | 370 ft | 28 kts | 70° |
| 2026-05-07 16:28 | 50.04181 | 8.58343 | 371 ft | 28 kts | 69° |
| 2026-05-07 16:28 | 50.04247 | 8.58628 | 373 ft | 28 kts | 70° |
| 2026-05-07 16:28 | 50.04314 | 8.58912 | 378 ft | 28 kts | 68° |
| 2026-05-07 16:28 | 50.04387 | 8.59207 | 376 ft | 30 kts | 70° |
| 2026-05-07 16:29 | 50.04487 | 8.59462 | 376 ft | 22 kts | 15° |
| 2026-05-07 16:29 | 50.04637 | 8.59457 | 376 ft | 23 kts | 355° |
| 2026-05-07 16:29 | 50.04753 | 8.59420 | 375 ft | 0 kts | 338° |
| 2026-05-07 16:29 | 50.04758 | 8.59416 | 375 ft | 4 kts | 337° |
| 2026-05-07 16:30 | 50.04819 | 8.59342 | 374 ft | 25 kts | 302° |
| 2026-05-07 16:30 | 50.04799 | 8.59078 | 372 ft | 24 kts | 250° |
| 2026-05-07 16:30 | 50.04752 | 8.58881 | 370 ft | 11 kts | 250° |
| 2026-05-07 16:30 | 50.04749 | 8.58868 | 370 ft | 0 kts | 250° |
| 2026-05-07 16:31 | 50.04749 | 8.58861 | 369 ft | 4 kts | 261° |
| 2026-05-07 16:31 | 50.04807 | 8.58732 | 370 ft | 20 kts | 339° |
| 2026-05-07 16:31 | 50.04939 | 8.58696 | 371 ft | 15 kts | 30° |
| 2026-05-07 16:31 | 50.04976 | 8.58797 | 372 ft | 11 kts | 67° |
| 2026-05-07 16:32 | 50.05010 | 8.58928 | 373 ft | 15 kts | 69° |
| 2026-05-07 16:32 | 50.05014 | 8.59039 | 373 ft | 7 kts | 144° |
| 2026-05-07 16:32 | 50.04973 | 8.59069 | 373 ft | 0 kts | 161° |
| 2026-05-07 16:32 | 50.04961 | 8.59076 | 373 ft | 0 kts | 160° |